sensor_id;sensor_type;location;lat;lon;timestamp;P1;durP1;ratioP1;P2;durP2;ratioP2
47812;SDS011;34221;45.296;9.516;2023-04-24T00:00:03;10.55;;;5.20;;
47812;SDS011;34221;45.296;9.516;2023-04-24T00:00:26;8.93;;;4.97;;
47812;SDS011;34221;45.296;9.516;2023-04-24T00:00:41;9.10;;;4.80;;
47812;SDS011;34221;45.296;9.516;2023-04-24T00:00:56;7.43;;;4.50;;
47812;SDS011;34221;45.296;9.516;2023-04-24T00:01:11;6.82;;;4.75;;
47812;SDS011;34221;45.296;9.516;2023-04-24T00:01:27;6.63;;;4.90;;
47812;SDS011;34221;45.296;9.516;2023-04-24T00:01:43;6.28;;;4.47;;
47812;SDS011;34221;45.296;9.516;2023-04-24T00:01:58;6.47;;;4.60;;
47812;SDS011;34221;45.296;9.516;2023-04-24T00:02:13;6.93;;;4.82;;
47812;SDS011;34221;45.296;9.516;2023-04-24T00:02:28;6.97;;;5.22;;
47812;SDS011;34221;45.296;9.516;2023-04-24T00:02:43;7.03;;;5.15;;
47812;SDS011;34221;45.296;9.516;2023-04-24T00:03:04;8.32;;;4.93;;
47812;SDS011;34221;45.296;9.516;2023-04-24T00:03:20;8.63;;;4.90;;
47812;SDS011;34221;45.296;9.516;2023-04-24T00:03:36;9.18;;;5.15;;
47812;SDS011;34221;45.296;9.516;2023-04-24T00:03:51;7.93;;;5.25;;
47812;SDS011;34221;45.296;9.516;2023-04-24T00:04:06;6.90;;;5.22;;
47812;SDS011;34221;45.296;9.516;2023-04-24T00:04:21;7.07;;;5.00;;
47812;SDS011;34221;45.296;9.516;2023-04-24T00:04:36;7.75;;;5.15;;
47812;SDS011;34221;45.296;9.516;2023-04-24T00:04:54;9.68;;;5.40;;
47812;SDS011;34221;45.296;9.516;2023-04-24T00:05:09;11.30;;;5.53;;
47812;SDS011;34221;45.296;9.516;2023-04-24T00:05:24;10.93;;;5.53;;
47812;SDS011;34221;45.296;9.516;2023-04-24T00:05:39;9.52;;;5.13;;
47812;SDS011;34221;45.296;9.516;2023-04-24T00:05:54;7.65;;;4.93;;
47812;SDS011;34221;45.296;9.516;2023-04-24T00:06:09;7.15;;;4.90;;
47812;SDS011;34221;45.296;9.516;2023-04-24T00:06:24;8.23;;;4.90;;
47812;SDS011;34221;45.296;9.516;2023-04-24T00:06:47;8.98;;;5.00;;
47812;SDS011;34221;45.296;9.516;2023-04-24T00:07:08;7.82;;;4.90;;
47812;SDS011;34221;45.296;9.516;2023-04-24T00:07:23;8.55;;;5.32;;
47812;SDS011;34221;45.296;9.516;2023-04-24T00:07:37;9.25;;;5.43;;
47812;SDS011;34221;45.296;9.516;2023-04-24T00:07:52;9.07;;;5.13;;
47812;SDS011;34221;45.296;9.516;2023-04-24T00:08:07;7.82;;;5.03;;
47812;SDS011;34221;45.296;9.516;2023-04-24T00:08:22;7.30;;;4.97;;
47812;SDS011;34221;45.296;9.516;2023-04-24T00:08:37;7.38;;;4.75;;
47812;SDS011;34221;45.296;9.516;2023-04-24T00:08:52;8.07;;;5.10;;
47812;SDS011;34221;45.296;9.516;2023-04-24T00:09:07;8.38;;;5.32;;
47812;SDS011;34221;45.296;9.516;2023-04-24T00:09:23;7.65;;;5.03;;
47812;SDS011;34221;45.296;9.516;2023-04-24T00:09:38;7.37;;;5.23;;
47812;SDS011;34221;45.296;9.516;2023-04-24T00:09:53;7.57;;;5.43;;
47812;SDS011;34221;45.296;9.516;2023-04-24T00:10:08;8.93;;;5.40;;
47812;SDS011;34221;45.296;9.516;2023-04-24T00:10:23;9.07;;;5.20;;
47812;SDS011;34221;45.296;9.516;2023-04-24T00:10:38;7.30;;;4.90;;
47812;SDS011;34221;45.296;9.516;2023-04-24T00:10:53;8.85;;;5.20;;
47812;SDS011;34221;45.296;9.516;2023-04-24T00:11:08;9.68;;;5.07;;
47812;SDS011;34221;45.296;9.516;2023-04-24T00:11:23;9.23;;;5.05;;
47812;SDS011;34221;45.296;9.516;2023-04-24T00:11:38;10.95;;;5.38;;
47812;SDS011;34221;45.296;9.516;2023-04-24T00:11:53;8.98;;;4.88;;
47812;SDS011;34221;45.296;9.516;2023-04-24T00:12:08;7.10;;;4.70;;
47812;SDS011;34221;45.296;9.516;2023-04-24T00:12:24;7.65;;;4.70;;
47812;SDS011;34221;45.296;9.516;2023-04-24T00:12:39;7.78;;;4.70;;
47812;SDS011;34221;45.296;9.516;2023-04-24T00:12:54;8.20;;;4.80;;
47812;SDS011;34221;45.296;9.516;2023-04-24T00:13:08;8.67;;;4.83;;
47812;SDS011;34221;45.296;9.516;2023-04-24T00:13:23;9.10;;;4.97;;
47812;SDS011;34221;45.296;9.516;2023-04-24T00:13:38;9.27;;;5.07;;
47812;SDS011;34221;45.296;9.516;2023-04-24T00:13:53;7.75;;;4.78;;
47812;SDS011;34221;45.296;9.516;2023-04-24T00:14:08;6.97;;;4.65;;
47812;SDS011;34221;45.296;9.516;2023-04-24T00:14:23;6.93;;;5.00;;
47812;SDS011;34221;45.296;9.516;2023-04-24T00:14:38;7.67;;;5.27;;
47812;SDS011;34221;45.296;9.516;2023-04-24T00:14:52;7.82;;;5.05;;
47812;SDS011;34221;45.296;9.516;2023-04-24T00:15:07;6.60;;;4.57;;
47812;SDS011;34221;45.296;9.516;2023-04-24T00:15:23;6.60;;;4.53;;
47812;SDS011;34221;45.296;9.516;2023-04-24T00:15:37;8.63;;;5.30;;
47812;SDS011;34221;45.296;9.516;2023-04-24T00:15:52;9.27;;;5.60;;
47812;SDS011;34221;45.296;9.516;2023-04-24T00:16:07;7.03;;;5.03;;
47812;SDS011;34221;45.296;9.516;2023-04-24T00:16:22;6.07;;;5.00;;
47812;SDS011;34221;45.296;9.516;2023-04-24T00:16:37;7.03;;;5.13;;
47812;SDS011;34221;45.296;9.516;2023-04-24T00:16:51;7.90;;;5.13;;
47812;SDS011;34221;45.296;9.516;2023-04-24T00:17:06;8.90;;;5.10;;
47812;SDS011;34221;45.296;9.516;2023-04-24T00:17:21;9.03;;;5.10;;
47812;SDS011;34221;45.296;9.516;2023-04-24T00:17:36;9.60;;;5.50;;
47812;SDS011;34221;45.296;9.516;2023-04-24T00:17:51;9.90;;;5.53;;
47812;SDS011;34221;45.296;9.516;2023-04-24T00:18:07;10.32;;;4.95;;
47812;SDS011;34221;45.296;9.516;2023-04-24T00:18:22;10.73;;;5.13;;
47812;SDS011;34221;45.296;9.516;2023-04-24T00:18:36;8.67;;;5.43;;
47812;SDS011;34221;45.296;9.516;2023-04-24T00:18:51;7.70;;;5.15;;
47812;SDS011;34221;45.296;9.516;2023-04-24T00:19:06;9.38;;;5.07;;
47812;SDS011;34221;45.296;9.516;2023-04-24T00:19:21;10.95;;;5.65;;
47812;SDS011;34221;45.296;9.516;2023-04-24T00:19:36;9.50;;;5.55;;
47812;SDS011;34221;45.296;9.516;2023-04-24T00:19:50;8.15;;;5.07;;
47812;SDS011;34221;45.296;9.516;2023-04-24T00:20:05;8.48;;;5.15;;
47812;SDS011;34221;45.296;9.516;2023-04-24T00:20:21;8.18;;;5.10;;
47812;SDS011;34221;45.296;9.516;2023-04-24T00:20:36;8.10;;;5.10;;
47812;SDS011;34221;45.296;9.516;2023-04-24T00:20:51;8.43;;;4.95;;
47812;SDS011;34221;45.296;9.516;2023-04-24T00:21:06;9.50;;;5.30;;
47812;SDS011;34221;45.296;9.516;2023-04-24T00:21:21;9.38;;;5.53;;
47812;SDS011;34221;45.296;9.516;2023-04-24T00:21:39;6.82;;;4.90;;
47812;SDS011;34221;45.296;9.516;2023-04-24T00:21:55;6.28;;;4.82;;
47812;SDS011;34221;45.296;9.516;2023-04-24T00:22:10;8.45;;;5.25;;
47812;SDS011;34221;45.296;9.516;2023-04-24T00:22:25;9.48;;;5.55;;
47812;SDS011;34221;45.296;9.516;2023-04-24T00:22:40;8.65;;;5.25;;
47812;SDS011;34221;45.296;9.516;2023-04-24T00:22:55;8.25;;;5.13;;
47812;SDS011;34221;45.296;9.516;2023-04-24T00:23:10;8.32;;;4.90;;
47812;SDS011;34221;45.296;9.516;2023-04-24T00:23:25;7.47;;;4.93;;
47812;SDS011;34221;45.296;9.516;2023-04-24T00:23:39;8.23;;;5.22;;
47812;SDS011;34221;45.296;9.516;2023-04-24T00:23:54;9.23;;;5.38;;
47812;SDS011;34221;45.296;9.516;2023-04-24T00:24:09;8.53;;;5.30;;
47812;SDS011;34221;45.296;9.516;2023-04-24T00:24:23;7.40;;;5.03;;
47812;SDS011;34221;45.296;9.516;2023-04-24T00:24:39;7.38;;;5.20;;
47812;SDS011;34221;45.296;9.516;2023-04-24T00:24:54;8.15;;;5.20;;
47812;SDS011;34221;45.296;9.516;2023-04-24T00:25:09;7.50;;;5.03;;
47812;SDS011;34221;45.296;9.516;2023-04-24T00:25:23;7.70;;;5.15;;
47812;SDS011;34221;45.296;9.516;2023-04-24T00:25:38;9.50;;;5.37;;
47812;SDS011;34221;45.296;9.516;2023-04-24T00:25:54;8.77;;;5.03;;
47812;SDS011;34221;45.296;9.516;2023-04-24T00:26:09;7.70;;;4.85;;
47812;SDS011;34221;45.296;9.516;2023-04-24T00:26:23;8.27;;;4.85;;
47812;SDS011;34221;45.296;9.516;2023-04-24T00:26:38;7.88;;;4.90;;
47812;SDS011;34221;45.296;9.516;2023-04-24T00:26:53;8.27;;;5.13;;
47812;SDS011;34221;45.296;9.516;2023-04-24T00:27:08;8.67;;;5.37;;
47812;SDS011;34221;45.296;9.516;2023-04-24T00:27:23;7.90;;;5.18;;
47812;SDS011;34221;45.296;9.516;2023-04-24T00:27:38;8.25;;;5.10;;
47812;SDS011;34221;45.296;9.516;2023-04-24T00:27:52;8.43;;;5.47;;
47812;SDS011;34221;45.296;9.516;2023-04-24T00:28:07;10.00;;;5.95;;
47812;SDS011;34221;45.296;9.516;2023-04-24T00:28:22;10.02;;;5.72;;
47812;SDS011;34221;45.296;9.516;2023-04-24T00:28:37;9.10;;;5.03;;
47812;SDS011;34221;45.296;9.516;2023-04-24T00:28:52;9.15;;;5.10;;
47812;SDS011;34221;45.296;9.516;2023-04-24T00:29:08;7.43;;;5.05;;
47812;SDS011;34221;45.296;9.516;2023-04-24T00:29:22;7.72;;;5.38;;
47812;SDS011;34221;45.296;9.516;2023-04-24T00:29:37;8.85;;;5.75;;
47812;SDS011;34221;45.296;9.516;2023-04-24T00:29:52;10.17;;;5.50;;
47812;SDS011;34221;45.296;9.516;2023-04-24T00:30:07;9.88;;;5.50;;
47812;SDS011;34221;45.296;9.516;2023-04-24T00:30:22;8.27;;;5.32;;
47812;SDS011;34221;45.296;9.516;2023-04-24T00:30:37;7.25;;;5.05;;
47812;SDS011;34221;45.296;9.516;2023-04-24T00:30:51;6.75;;;5.05;;
47812;SDS011;34221;45.296;9.516;2023-04-24T00:31:07;7.88;;;5.40;;
47812;SDS011;34221;45.296;9.516;2023-04-24T00:31:21;8.97;;;5.43;;
47812;SDS011;34221;45.296;9.516;2023-04-24T00:31:36;9.60;;;5.00;;
47812;SDS011;34221;45.296;9.516;2023-04-24T00:31:51;8.68;;;5.25;;
47812;SDS011;34221;45.296;9.516;2023-04-24T00:32:06;6.38;;;4.95;;
47812;SDS011;34221;45.296;9.516;2023-04-24T00:32:20;5.65;;;4.43;;
47812;SDS011;34221;45.296;9.516;2023-04-24T00:32:36;6.90;;;4.80;;
47812;SDS011;34221;45.296;9.516;2023-04-24T00:32:51;7.13;;;5.13;;
47812;SDS011;34221;45.296;9.516;2023-04-24T00:33:05;7.53;;;5.25;;
47812;SDS011;34221;45.296;9.516;2023-04-24T00:33:20;10.20;;;5.60;;
47812;SDS011;34221;45.296;9.516;2023-04-24T00:33:35;9.98;;;5.47;;
47812;SDS011;34221;45.296;9.516;2023-04-24T00:33:50;8.68;;;4.82;;
47812;SDS011;34221;45.296;9.516;2023-04-24T00:34:05;11.10;;;4.72;;
47812;SDS011;34221;45.296;9.516;2023-04-24T00:34:20;10.02;;;5.05;;
47812;SDS011;34221;45.296;9.516;2023-04-24T00:34:35;6.80;;;5.30;;
47812;SDS011;34221;45.296;9.516;2023-04-24T00:34:50;7.05;;;5.30;;
47812;SDS011;34221;45.296;9.516;2023-04-24T00:35:05;7.72;;;5.53;;
47812;SDS011;34221;45.296;9.516;2023-04-24T00:35:20;7.43;;;5.40;;
47812;SDS011;34221;45.296;9.516;2023-04-24T00:35:35;6.72;;;5.13;;
47812;SDS011;34221;45.296;9.516;2023-04-24T00:35:49;7.55;;;5.10;;
47812;SDS011;34221;45.296;9.516;2023-04-24T00:36:04;8.55;;;5.32;;
47812;SDS011;34221;45.296;9.516;2023-04-24T00:36:19;11.30;;;5.45;;
47812;SDS011;34221;45.296;9.516;2023-04-24T00:36:34;10.82;;;5.45;;
47812;SDS011;34221;45.296;9.516;2023-04-24T00:36:49;7.40;;;5.47;;
47812;SDS011;34221;45.296;9.516;2023-04-24T00:37:06;9.18;;;5.50;;
47812;SDS011;34221;45.296;9.516;2023-04-24T00:37:21;9.23;;;5.43;;
47812;SDS011;34221;45.296;9.516;2023-04-24T00:37:35;10.20;;;5.57;;
47812;SDS011;34221;45.296;9.516;2023-04-24T00:37:50;12.25;;;5.68;;
47812;SDS011;34221;45.296;9.516;2023-04-24T00:38:05;10.25;;;5.55;;
47812;SDS011;34221;45.296;9.516;2023-04-24T00:38:20;7.47;;;5.30;;
47812;SDS011;34221;45.296;9.516;2023-04-24T00:38:36;7.38;;;4.93;;
47812;SDS011;34221;45.296;9.516;2023-04-24T00:38:51;9.07;;;5.13;;
47812;SDS011;34221;45.296;9.516;2023-04-24T00:39:06;8.53;;;5.20;;
47812;SDS011;34221;45.296;9.516;2023-04-24T00:39:22;7.95;;;4.82;;
47812;SDS011;34221;45.296;9.516;2023-04-24T00:39:37;10.15;;;5.35;;
47812;SDS011;34221;45.296;9.516;2023-04-24T00:39:52;9.88;;;5.72;;
47812;SDS011;34221;45.296;9.516;2023-04-24T00:40:07;8.40;;;5.40;;
47812;SDS011;34221;45.296;9.516;2023-04-24T00:40:22;8.65;;;5.38;;
47812;SDS011;34221;45.296;9.516;2023-04-24T00:40:37;7.40;;;5.10;;
47812;SDS011;34221;45.296;9.516;2023-04-24T00:40:52;7.18;;;5.15;;
47812;SDS011;34221;45.296;9.516;2023-04-24T00:41:08;9.35;;;5.80;;
47812;SDS011;34221;45.296;9.516;2023-04-24T00:41:24;8.85;;;5.63;;
47812;SDS011;34221;45.296;9.516;2023-04-24T00:41:39;7.88;;;5.53;;
47812;SDS011;34221;45.296;9.516;2023-04-24T00:41:54;9.05;;;5.50;;
47812;SDS011;34221;45.296;9.516;2023-04-24T00:42:09;12.32;;;5.88;;
47812;SDS011;34221;45.296;9.516;2023-04-24T00:42:24;12.53;;;5.70;;
47812;SDS011;34221;45.296;9.516;2023-04-24T00:42:39;9.00;;;4.88;;
47812;SDS011;34221;45.296;9.516;2023-04-24T00:42:54;9.98;;;5.15;;
47812;SDS011;34221;45.296;9.516;2023-04-24T00:43:09;11.93;;;5.63;;
47812;SDS011;34221;45.296;9.516;2023-04-24T00:43:25;9.50;;;5.40;;
47812;SDS011;34221;45.296;9.516;2023-04-24T00:43:40;7.07;;;5.20;;
47812;SDS011;34221;45.296;9.516;2023-04-24T00:43:54;6.67;;;5.23;;
47812;SDS011;34221;45.296;9.516;2023-04-24T00:44:09;8.10;;;5.60;;
47812;SDS011;34221;45.296;9.516;2023-04-24T00:44:24;8.50;;;5.80;;
47812;SDS011;34221;45.296;9.516;2023-04-24T00:44:39;7.32;;;5.28;;
47812;SDS011;34221;45.296;9.516;2023-04-24T00:44:54;7.78;;;5.10;;
47812;SDS011;34221;45.296;9.516;2023-04-24T00:45:10;8.25;;;5.18;;
47812;SDS011;34221;45.296;9.516;2023-04-24T00:45:25;8.63;;;5.30;;
47812;SDS011;34221;45.296;9.516;2023-04-24T00:45:40;7.83;;;5.20;;
47812;SDS011;34221;45.296;9.516;2023-04-24T00:45:55;8.00;;;5.30;;
47812;SDS011;34221;45.296;9.516;2023-04-24T00:46:10;10.07;;;5.43;;
47812;SDS011;34221;45.296;9.516;2023-04-24T00:46:25;10.07;;;5.63;;
47812;SDS011;34221;45.296;9.516;2023-04-24T00:46:40;8.25;;;5.75;;
47812;SDS011;34221;45.296;9.516;2023-04-24T00:46:55;8.45;;;5.43;;
47812;SDS011;34221;45.296;9.516;2023-04-24T00:47:11;10.23;;;5.55;;
47812;SDS011;34221;45.296;9.516;2023-04-24T00:47:27;9.48;;;5.38;;
47812;SDS011;34221;45.296;9.516;2023-04-24T00:47:42;9.20;;;5.43;;
47812;SDS011;34221;45.296;9.516;2023-04-24T00:47:59;10.25;;;5.78;;
47812;SDS011;34221;45.296;9.516;2023-04-24T00:48:14;10.90;;;5.95;;
47812;SDS011;34221;45.296;9.516;2023-04-24T00:48:30;9.20;;;5.18;;
47812;SDS011;34221;45.296;9.516;2023-04-24T00:48:45;9.07;;;5.25;;
47812;SDS011;34221;45.296;9.516;2023-04-24T00:49:00;10.07;;;5.88;;
47812;SDS011;34221;45.296;9.516;2023-04-24T00:49:16;8.30;;;5.78;;
47812;SDS011;34221;45.296;9.516;2023-04-24T00:49:32;8.55;;;5.63;;
47812;SDS011;34221;45.296;9.516;2023-04-24T00:49:47;9.15;;;5.70;;
47812;SDS011;34221;45.296;9.516;2023-04-24T00:50:02;8.27;;;5.47;;
47812;SDS011;34221;45.296;9.516;2023-04-24T00:50:18;9.32;;;5.80;;
47812;SDS011;34221;45.296;9.516;2023-04-24T00:50:35;10.10;;;5.80;;
47812;SDS011;34221;45.296;9.516;2023-04-24T00:50:50;7.88;;;5.50;;
47812;SDS011;34221;45.296;9.516;2023-04-24T00:51:05;7.78;;;5.43;;
47812;SDS011;34221;45.296;9.516;2023-04-24T00:51:20;9.68;;;5.80;;
47812;SDS011;34221;45.296;9.516;2023-04-24T00:51:35;9.52;;;6.03;;
47812;SDS011;34221;45.296;9.516;2023-04-24T00:51:50;8.65;;;5.75;;
47812;SDS011;34221;45.296;9.516;2023-04-24T00:52:06;9.13;;;5.80;;
47812;SDS011;34221;45.296;9.516;2023-04-24T00:52:22;11.05;;;5.50;;
47812;SDS011;34221;45.296;9.516;2023-04-24T00:52:38;9.90;;;5.40;;
47812;SDS011;34221;45.296;9.516;2023-04-24T00:52:54;7.40;;;5.13;;
47812;SDS011;34221;45.296;9.516;2023-04-24T00:53:09;7.25;;;5.18;;
47812;SDS011;34221;45.296;9.516;2023-04-24T00:53:24;7.13;;;5.20;;
47812;SDS011;34221;45.296;9.516;2023-04-24T00:53:39;7.88;;;5.28;;
47812;SDS011;34221;45.296;9.516;2023-04-24T00:53:54;7.77;;;5.30;;
47812;SDS011;34221;45.296;9.516;2023-04-24T00:54:09;7.22;;;5.22;;
47812;SDS011;34221;45.296;9.516;2023-04-24T00:54:24;9.40;;;5.82;;
47812;SDS011;34221;45.296;9.516;2023-04-24T00:54:39;10.13;;;6.25;;
47812;SDS011;34221;45.296;9.516;2023-04-24T00:54:54;9.27;;;6.20;;
47812;SDS011;34221;45.296;9.516;2023-04-24T00:55:09;8.85;;;5.68;;
47812;SDS011;34221;45.296;9.516;2023-04-24T00:55:24;8.20;;;5.47;;
47812;SDS011;34221;45.296;9.516;2023-04-24T00:55:41;8.90;;;5.72;;
47812;SDS011;34221;45.296;9.516;2023-04-24T00:55:56;8.85;;;5.93;;
47812;SDS011;34221;45.296;9.516;2023-04-24T00:56:11;9.50;;;5.93;;
47812;SDS011;34221;45.296;9.516;2023-04-24T00:56:26;9.83;;;5.60;;
47812;SDS011;34221;45.296;9.516;2023-04-24T00:56:41;7.72;;;5.18;;
47812;SDS011;34221;45.296;9.516;2023-04-24T00:56:58;7.38;;;5.10;;
47812;SDS011;34221;45.296;9.516;2023-04-24T00:57:13;8.43;;;5.50;;
47812;SDS011;34221;45.296;9.516;2023-04-24T00:57:29;8.57;;;5.88;;
47812;SDS011;34221;45.296;9.516;2023-04-24T00:57:44;8.23;;;5.40;;
47812;SDS011;34221;45.296;9.516;2023-04-24T00:58:00;7.50;;;5.10;;
47812;SDS011;34221;45.296;9.516;2023-04-24T00:58:15;8.93;;;5.57;;
47812;SDS011;34221;45.296;9.516;2023-04-24T00:58:30;8.68;;;5.63;;
47812;SDS011;34221;45.296;9.516;2023-04-24T00:58:46;8.30;;;5.28;;
47812;SDS011;34221;45.296;9.516;2023-04-24T00:59:01;9.05;;;5.25;;
47812;SDS011;34221;45.296;9.516;2023-04-24T00:59:16;7.50;;;5.13;;
47812;SDS011;34221;45.296;9.516;2023-04-24T00:59:32;6.72;;;5.20;;
47812;SDS011;34221;45.296;9.516;2023-04-24T00:59:47;7.70;;;5.35;;
47812;SDS011;34221;45.296;9.516;2023-04-24T01:00:02;8.48;;;5.18;;
47812;SDS011;34221;45.296;9.516;2023-04-24T01:00:19;7.25;;;5.15;;
47812;SDS011;34221;45.296;9.516;2023-04-24T01:00:34;8.15;;;5.28;;
47812;SDS011;34221;45.296;9.516;2023-04-24T01:00:50;8.10;;;5.15;;
47812;SDS011;34221;45.296;9.516;2023-04-24T01:01:07;7.78;;;5.13;;
47812;SDS011;34221;45.296;9.516;2023-04-24T01:01:22;9.32;;;5.43;;
47812;SDS011;34221;45.296;9.516;2023-04-24T01:01:39;8.77;;;5.50;;
47812;SDS011;34221;45.296;9.516;2023-04-24T01:01:57;7.28;;;5.22;;
47812;SDS011;34221;45.296;9.516;2023-04-24T01:02:12;7.53;;;5.30;;
47812;SDS011;34221;45.296;9.516;2023-04-24T01:02:27;8.63;;;5.68;;
47812;SDS011;34221;45.296;9.516;2023-04-24T01:02:43;9.88;;;5.50;;
47812;SDS011;34221;45.296;9.516;2023-04-24T01:02:59;8.82;;;5.18;;
47812;SDS011;34221;45.296;9.516;2023-04-24T01:03:19;8.25;;;5.10;;
47812;SDS011;34221;45.296;9.516;2023-04-24T01:03:36;8.23;;;5.13;;
47812;SDS011;34221;45.296;9.516;2023-04-24T01:03:52;7.28;;;5.38;;
47812;SDS011;34221;45.296;9.516;2023-04-24T01:04:07;7.32;;;5.55;;
47812;SDS011;34221;45.296;9.516;2023-04-24T01:04:24;7.32;;;5.18;;
47812;SDS011;34221;45.296;9.516;2023-04-24T01:04:40;9.43;;;5.68;;
47812;SDS011;34221;45.296;9.516;2023-04-24T01:04:55;9.80;;;6.15;;
47812;SDS011;34221;45.296;9.516;2023-04-24T01:05:11;9.32;;;5.65;;
47812;SDS011;34221;45.296;9.516;2023-04-24T01:05:27;9.93;;;5.43;;
47812;SDS011;34221;45.296;9.516;2023-04-24T01:05:42;8.20;;;5.40;;
47812;SDS011;34221;45.296;9.516;2023-04-24T01:05:56;8.55;;;5.25;;
47812;SDS011;34221;45.296;9.516;2023-04-24T01:06:12;8.45;;;5.18;;
47812;SDS011;34221;45.296;9.516;2023-04-24T01:06:28;7.63;;;5.10;;
47812;SDS011;34221;45.296;9.516;2023-04-24T01:06:45;7.55;;;5.35;;
47812;SDS011;34221;45.296;9.516;2023-04-24T01:07:00;7.28;;;5.47;;
47812;SDS011;34221;45.296;9.516;2023-04-24T01:07:15;7.05;;;5.35;;
47812;SDS011;34221;45.296;9.516;2023-04-24T01:07:32;7.72;;;5.30;;
47812;SDS011;34221;45.296;9.516;2023-04-24T01:07:46;8.13;;;4.75;;
47812;SDS011;34221;45.296;9.516;2023-04-24T01:08:03;9.40;;;5.28;;
47812;SDS011;34221;45.296;9.516;2023-04-24T01:08:18;10.07;;;5.57;;
47812;SDS011;34221;45.296;9.516;2023-04-24T01:08:34;8.07;;;5.10;;
47812;SDS011;34221;45.296;9.516;2023-04-24T01:08:51;8.48;;;5.70;;
47812;SDS011;34221;45.296;9.516;2023-04-24T01:09:06;8.80;;;5.68;;
47812;SDS011;34221;45.296;9.516;2023-04-24T01:09:24;8.00;;;5.60;;
47812;SDS011;34221;45.296;9.516;2023-04-24T01:09:40;8.68;;;5.80;;
47812;SDS011;34221;45.296;9.516;2023-04-24T01:09:58;7.93;;;5.40;;
47812;SDS011;34221;45.296;9.516;2023-04-24T01:10:13;6.78;;;5.25;;
47812;SDS011;34221;45.296;9.516;2023-04-24T01:10:29;7.43;;;5.25;;
47812;SDS011;34221;45.296;9.516;2023-04-24T01:10:45;9.52;;;5.40;;
47812;SDS011;34221;45.296;9.516;2023-04-24T01:11:01;8.70;;;5.57;;
47812;SDS011;34221;45.296;9.516;2023-04-24T01:11:18;9.88;;;5.70;;
47812;SDS011;34221;45.296;9.516;2023-04-24T01:11:35;10.77;;;5.70;;
47812;SDS011;34221;45.296;9.516;2023-04-24T01:11:50;10.30;;;5.90;;
47812;SDS011;34221;45.296;9.516;2023-04-24T01:12:05;9.25;;;5.72;;
47812;SDS011;34221;45.296;9.516;2023-04-24T01:12:21;7.85;;;5.38;;
47812;SDS011;34221;45.296;9.516;2023-04-24T01:12:35;7.35;;;5.13;;
47812;SDS011;34221;45.296;9.516;2023-04-24T01:12:51;7.57;;;5.07;;
47812;SDS011;34221;45.296;9.516;2023-04-24T01:13:07;7.88;;;5.20;;
47812;SDS011;34221;45.296;9.516;2023-04-24T01:13:22;7.47;;;5.22;;
47812;SDS011;34221;45.296;9.516;2023-04-24T01:13:37;8.02;;;5.15;;
47812;SDS011;34221;45.296;9.516;2023-04-24T01:13:52;9.82;;;5.40;;
47812;SDS011;34221;45.296;9.516;2023-04-24T01:14:07;11.18;;;5.43;;
47812;SDS011;34221;45.296;9.516;2023-04-24T01:14:21;9.52;;;5.10;;
47812;SDS011;34221;45.296;9.516;2023-04-24T01:14:37;8.63;;;5.13;;
47812;SDS011;34221;45.296;9.516;2023-04-24T01:14:52;8.82;;;5.30;;
47812;SDS011;34221;45.296;9.516;2023-04-24T01:15:07;10.15;;;5.43;;
47812;SDS011;34221;45.296;9.516;2023-04-24T01:15:23;11.17;;;5.57;;
47812;SDS011;34221;45.296;9.516;2023-04-24T01:15:38;10.20;;;5.80;;
47812;SDS011;34221;45.296;9.516;2023-04-24T01:15:52;12.83;;;5.93;;
47812;SDS011;34221;45.296;9.516;2023-04-24T01:16:07;11.30;;;5.68;;
47812;SDS011;34221;45.296;9.516;2023-04-24T01:16:22;8.68;;;5.40;;
47812;SDS011;34221;45.296;9.516;2023-04-24T01:16:37;7.45;;;5.22;;
47812;SDS011;34221;45.296;9.516;2023-04-24T01:16:52;6.45;;;5.20;;
47812;SDS011;34221;45.296;9.516;2023-04-24T01:17:08;8.48;;;5.80;;
47812;SDS011;34221;45.296;9.516;2023-04-24T01:17:23;9.57;;;6.20;;
47812;SDS011;34221;45.296;9.516;2023-04-24T01:17:38;8.83;;;5.83;;
47812;SDS011;34221;45.296;9.516;2023-04-24T01:17:53;7.88;;;5.55;;
47812;SDS011;34221;45.296;9.516;2023-04-24T01:18:09;7.40;;;5.40;;
47812;SDS011;34221;45.296;9.516;2023-04-24T01:18:24;9.13;;;5.88;;
47812;SDS011;34221;45.296;9.516;2023-04-24T01:18:38;9.32;;;5.85;;
47812;SDS011;34221;45.296;9.516;2023-04-24T01:18:53;8.82;;;5.45;;
47812;SDS011;34221;45.296;9.516;2023-04-24T01:19:08;8.00;;;5.05;;
47812;SDS011;34221;45.296;9.516;2023-04-24T01:19:25;8.35;;;5.07;;
47812;SDS011;34221;45.296;9.516;2023-04-24T01:19:39;9.77;;;6.05;;
47812;SDS011;34221;45.296;9.516;2023-04-24T01:19:54;8.57;;;6.05;;
47812;SDS011;34221;45.296;9.516;2023-04-24T01:20:11;8.60;;;5.97;;
47812;SDS011;34221;45.296;9.516;2023-04-24T01:20:29;8.07;;;6.10;;
47812;SDS011;34221;45.296;9.516;2023-04-24T01:20:46;7.47;;;6.20;;
47812;SDS011;34221;45.296;9.516;2023-04-24T01:21:02;8.68;;;5.90;;
47812;SDS011;34221;45.296;9.516;2023-04-24T01:21:19;9.25;;;5.45;;
47812;SDS011;34221;45.296;9.516;2023-04-24T01:21:36;8.13;;;5.60;;
47812;SDS011;34221;45.296;9.516;2023-04-24T01:21:52;7.28;;;5.47;;
47812;SDS011;34221;45.296;9.516;2023-04-24T01:22:11;8.60;;;5.50;;
47812;SDS011;34221;45.296;9.516;2023-04-24T01:22:29;11.23;;;5.82;;
47812;SDS011;34221;45.296;9.516;2023-04-24T01:22:44;9.98;;;5.47;;
47812;SDS011;34221;45.296;9.516;2023-04-24T01:22:59;7.78;;;5.20;;
47812;SDS011;34221;45.296;9.516;2023-04-24T01:23:14;7.75;;;5.47;;
47812;SDS011;34221;45.296;9.516;2023-04-24T01:23:30;8.23;;;5.50;;
47812;SDS011;34221;45.296;9.516;2023-04-24T01:23:45;8.23;;;5.30;;
47812;SDS011;34221;45.296;9.516;2023-04-24T01:24:00;8.00;;;5.13;;
47812;SDS011;34221;45.296;9.516;2023-04-24T01:24:14;8.00;;;5.32;;
47812;SDS011;34221;45.296;9.516;2023-04-24T01:24:29;6.93;;;5.10;;
47812;SDS011;34221;45.296;9.516;2023-04-24T01:24:44;6.78;;;5.22;;
47812;SDS011;34221;45.296;9.516;2023-04-24T01:25:00;7.95;;;5.70;;
47812;SDS011;34221;45.296;9.516;2023-04-24T01:25:18;8.98;;;5.72;;
47812;SDS011;34221;45.296;9.516;2023-04-24T01:25:33;8.05;;;5.38;;
47812;SDS011;34221;45.296;9.516;2023-04-24T01:25:49;7.25;;;5.20;;
47812;SDS011;34221;45.296;9.516;2023-04-24T01:26:04;8.13;;;5.55;;
47812;SDS011;34221;45.296;9.516;2023-04-24T01:26:19;8.57;;;5.85;;
47812;SDS011;34221;45.296;9.516;2023-04-24T01:26:34;10.07;;;5.75;;
47812;SDS011;34221;45.296;9.516;2023-04-24T01:26:49;8.55;;;5.30;;
47812;SDS011;34221;45.296;9.516;2023-04-24T01:27:07;6.95;;;5.45;;
47812;SDS011;34221;45.296;9.516;2023-04-24T01:27:23;8.20;;;5.35;;
47812;SDS011;34221;45.296;9.516;2023-04-24T01:27:38;7.97;;;5.20;;
47812;SDS011;34221;45.296;9.516;2023-04-24T01:27:53;6.45;;;5.07;;
47812;SDS011;34221;45.296;9.516;2023-04-24T01:28:07;7.20;;;5.07;;
47812;SDS011;34221;45.296;9.516;2023-04-24T01:28:22;8.27;;;5.50;;
47812;SDS011;34221;45.296;9.516;2023-04-24T01:28:37;9.45;;;5.50;;
47812;SDS011;34221;45.296;9.516;2023-04-24T01:28:53;9.13;;;5.63;;
47812;SDS011;34221;45.296;9.516;2023-04-24T01:29:08;8.40;;;5.72;;
47812;SDS011;34221;45.296;9.516;2023-04-24T01:29:24;7.85;;;5.45;;
47812;SDS011;34221;45.296;9.516;2023-04-24T01:29:39;8.98;;;5.20;;
47812;SDS011;34221;45.296;9.516;2023-04-24T01:29:54;9.38;;;5.15;;
47812;SDS011;34221;45.296;9.516;2023-04-24T01:30:09;8.82;;;5.07;;
47812;SDS011;34221;45.296;9.516;2023-04-24T01:30:25;9.00;;;5.30;;
47812;SDS011;34221;45.296;9.516;2023-04-24T01:30:41;7.93;;;5.53;;
47812;SDS011;34221;45.296;9.516;2023-04-24T01:30:56;9.00;;;5.55;;
47812;SDS011;34221;45.296;9.516;2023-04-24T01:31:11;10.48;;;5.22;;
47812;SDS011;34221;45.296;9.516;2023-04-24T01:31:26;10.98;;;5.40;;
47812;SDS011;34221;45.296;9.516;2023-04-24T01:31:41;9.63;;;5.30;;
47812;SDS011;34221;45.296;9.516;2023-04-24T01:31:56;8.48;;;5.13;;
47812;SDS011;34221;45.296;9.516;2023-04-24T01:32:12;8.55;;;5.55;;
47812;SDS011;34221;45.296;9.516;2023-04-24T01:32:28;8.60;;;5.95;;